createdAt,value
2023-02-17T00:01:36.178Z,60.27
2023-02-17T00:04:04.897Z,69.92
2023-02-17T00:06:32.826Z,72.65
2023-02-17T00:09:01.923Z,65.07
2023-02-17T00:11:30.447Z,60.18
2023-02-17T00:14:00.485Z,53.50
2023-02-17T00:16:29.615Z,52.56
2023-02-17T00:19:01.718Z,55.15
2023-02-17T00:21:32.401Z,57.06
2023-02-17T00:24:01.019Z,59.40
2023-02-17T00:26:29.735Z,61.07
2023-02-17T00:28:59.864Z,69.30
2023-02-17T00:31:27.909Z,73.28
2023-02-17T00:33:56.586Z,64.25
2023-02-17T00:36:27.745Z,59.79
2023-02-17T00:38:58.302Z,53.63
2023-02-17T00:41:28.882Z,53.74
2023-02-17T00:43:57.472Z,55.99
2023-02-17T00:46:27.288Z,57.72
2023-02-17T00:48:55.181Z,57.40
2023-02-17T00:51:25.872Z,58.75
2023-02-17T00:53:53.638Z,60.61
2023-02-17T00:56:21.356Z,67.64
2023-02-17T00:58:50.269Z,73.17
2023-02-17T01:01:18.448Z,65.21
2023-02-17T01:03:46.212Z,60.03
2023-02-17T01:06:31.381Z,53.79
2023-02-17T01:09:01.505Z,53.57
2023-02-17T01:11:33.357Z,56.08
2023-02-17T01:14:06.252Z,57.96
2023-02-17T01:16:47.555Z,59.03
2023-02-17T01:19:19.277Z,59.84
2023-02-17T01:21:47.127Z,68.46
2023-02-17T01:24:14.958Z,71.97
2023-02-17T01:26:43.228Z,65.35
2023-02-17T01:29:11.675Z,60.59
2023-02-17T01:31:40.722Z,54.12
2023-02-17T01:34:08.405Z,53.59
2023-02-17T01:36:36.230Z,55.83
2023-02-17T01:39:04.329Z,57.41
2023-02-17T01:41:32.472Z,60.52
2023-02-17T01:44:24.569Z,68.20
2023-02-17T01:46:56.118Z,68.32
2023-02-17T01:49:39.363Z,61.07
2023-02-17T01:52:21.004Z,54.28
2023-02-17T01:55:02.636Z,53.74
2023-02-17T01:57:35.676Z,56.98
2023-02-17T02:00:08.922Z,58.83
2023-02-17T02:02:37.903Z,61.74
2023-02-17T02:05:06.197Z,66.67
2023-02-17T02:07:40.712Z,69.69
2023-02-17T02:10:12.523Z,62.32
2023-02-17T02:12:42.754Z,54.37
2023-02-17T02:15:26.550Z,52.95
2023-02-17T02:18:03.409Z,56.49
2023-02-17T02:21:10.127Z,59.15
2023-02-17T02:23:54.053Z,60.17
2023-02-17T02:27:13.106Z,63.20
2023-02-17T02:30:10.904Z,72.55
2023-02-17T02:33:14.272Z,67.73
2023-02-17T02:36:11.857Z,65.14
2023-02-17T02:39:10.334Z,62.34
2023-02-17T02:41:44.732Z,54.12
2023-02-17T02:44:18.022Z,54.99
2023-02-17T02:47:05.965Z,57.74
2023-02-17T02:49:37.556Z,58.42
2023-02-17T02:52:27.204Z,61.01
2023-02-17T02:55:09.267Z,68.66
2023-02-17T02:57:59.429Z,69.32
2023-02-17T03:00:46.915Z,64.54
2023-02-17T03:04:07.297Z,60.66
2023-02-17T03:07:03.879Z,53.33
2023-02-17T03:09:34.167Z,55.21
2023-02-17T03:12:03.282Z,55.68
2023-02-17T03:14:37.476Z,58.04
2023-02-17T03:17:05.637Z,60.45
2023-02-17T03:19:33.326Z,61.00
2023-02-17T03:22:23.631Z,67.67
2023-02-17T03:24:52.112Z,71.15
2023-02-17T03:27:19.827Z,65.10
2023-02-17T03:29:48.317Z,60.31
2023-02-17T03:32:16.323Z,54.12
2023-02-17T03:34:44.029Z,53.51
2023-02-17T03:37:12.031Z,55.68
2023-02-17T03:39:41.173Z,57.87
2023-02-17T03:42:09.097Z,59.31
2023-02-17T03:44:37.266Z,60.78
2023-02-17T03:47:07.414Z,69.15
2023-02-17T03:49:35.762Z,71.72
2023-02-17T03:52:04.053Z,66.32
2023-02-17T03:54:31.999Z,61.64
2023-02-17T03:57:02.907Z,55.77
2023-02-17T03:59:30.926Z,54.70
2023-02-17T04:02:01.109Z,57.15
2023-02-17T04:04:31.462Z,59.16
2023-02-17T04:06:59.269Z,60.33
2023-02-17T04:09:27.112Z,67.46
2023-02-17T04:11:57.278Z,68.74
2023-02-17T04:14:25.029Z,62.78
2023-02-17T04:16:53.185Z,55.92
2023-02-17T04:19:21.411Z,53.64
2023-02-17T04:21:53.240Z,56.18
2023-02-17T04:24:23.694Z,57.88
2023-02-17T04:26:51.677Z,59.22
2023-02-17T04:29:19.432Z,66.00
2023-02-17T04:31:47.272Z,71.14
2023-02-17T04:34:15.565Z,66.03
2023-02-17T04:36:44.355Z,61.71
2023-02-17T04:39:12.618Z,56.29
2023-02-17T04:41:41.520Z,55.64
2023-02-17T04:44:09.545Z,57.62
2023-02-17T04:46:38.753Z,59.41
2023-02-17T04:49:06.723Z,61.26
2023-02-17T04:51:34.974Z,66.74
2023-02-17T04:54:02.723Z,69.79
2023-02-17T04:56:30.500Z,65.21
2023-02-17T04:58:58.281Z,61.51
2023-02-17T05:01:28.439Z,57.36
2023-02-17T05:03:56.215Z,53.70
2023-02-17T05:06:24.635Z,55.25
2023-02-17T05:08:54.228Z,57.41
2023-02-17T05:11:22.152Z,59.38
2023-02-17T05:13:51.270Z,61.01
2023-02-17T05:16:20.259Z,68.53
2023-02-17T05:18:48.136Z,71.16
2023-02-17T05:21:16.165Z,66.45
2023-02-17T05:23:46.688Z,61.73
2023-02-17T05:26:14.497Z,55.24
2023-02-17T05:28:42.321Z,54.08
2023-02-17T05:31:11.864Z,56.83
2023-02-17T05:33:42.654Z,58.45
2023-02-17T05:36:12.817Z,59.55
2023-02-17T05:38:41.218Z,61.47
2023-02-17T05:41:08.963Z,69.45
2023-02-17T05:43:46.657Z,70.95
2023-02-17T05:46:15.489Z,64.21
2023-02-17T05:48:45.354Z,61.96
2023-02-17T05:51:20.044Z,57.51
2023-02-17T05:53:48.178Z,53.06
2023-02-17T05:56:15.965Z,54.07
2023-02-17T05:58:45.273Z,56.81
2023-02-17T06:01:14.307Z,60.24
2023-02-17T06:03:42.380Z,67.24
2023-02-17T06:06:10.216Z,71.03
2023-02-17T06:08:40.710Z,66.28
2023-02-17T06:11:08.701Z,63.26
2023-02-17T06:13:37.409Z,61.00
2023-02-17T06:16:06.519Z,56.27
2023-02-17T06:18:39.738Z,55.36
2023-02-17T06:21:07.725Z,59.49
2023-02-17T06:23:35.450Z,59.41
2023-02-17T06:26:03.603Z,62.95
2023-02-17T06:28:33.650Z,71.42
2023-02-17T06:31:03.188Z,70.48
2023-02-17T06:33:31.177Z,64.49
2023-02-17T06:35:58.956Z,63.27
2023-02-17T06:38:26.893Z,58.26
2023-02-17T06:40:55.101Z,54.87
2023-02-17T06:43:23.476Z,56.05
2023-02-17T06:45:53.386Z,58.36
2023-02-17T06:48:23.648Z,59.77
2023-02-17T06:50:51.426Z,61.87
2023-02-17T06:53:19.401Z,69.97
2023-02-17T06:55:47.091Z,72.64
2023-02-17T06:58:14.928Z,68.83
2023-02-17T07:00:43.032Z,64.51
2023-02-17T07:03:11.262Z,60.75
2023-02-17T07:05:40.607Z,59.89
2023-02-17T07:08:08.520Z,54.93
2023-02-17T07:10:38.385Z,54.42
2023-02-17T07:13:06.360Z,56.27
2023-02-17T07:15:35.365Z,59.59
2023-02-17T07:18:03.406Z,60.55
2023-02-17T07:20:32.253Z,67.55
2023-02-17T07:23:01.933Z,71.79
2023-02-17T07:25:31.182Z,67.53
2023-02-17T07:28:00.286Z,63.64
2023-02-17T07:30:28.049Z,61.56
2023-02-17T07:32:55.929Z,56.45
2023-02-17T07:35:25.042Z,55.55
2023-02-17T07:37:52.766Z,56.84
2023-02-17T07:40:20.611Z,60.72
2023-02-17T07:42:48.828Z,61.61
2023-02-17T07:45:16.776Z,69.87
2023-02-17T07:47:45.013Z,72.20
2023-02-17T07:50:12.906Z,67.28
2023-02-17T07:52:40.748Z,61.46
2023-02-17T07:55:08.475Z,60.56
2023-02-17T07:57:40.009Z,56.60
2023-02-17T08:00:11.080Z,56.22
2023-02-17T08:02:39.644Z,60.00
2023-02-17T08:05:07.983Z,60.81
2023-02-17T08:07:35.779Z,66.65
2023-02-17T08:10:22.917Z,70.30
2023-02-17T08:13:11.770Z,65.94
2023-02-17T08:15:40.069Z,63.41
2023-02-17T08:18:07.988Z,60.92
2023-02-17T08:20:35.784Z,56.55
2023-02-17T08:23:03.775Z,55.04
2023-02-17T08:25:35.047Z,58.52
2023-02-17T08:28:05.940Z,59.73
2023-02-17T08:30:36.849Z,67.09
2023-02-17T08:33:07.155Z,69.90
2023-02-17T08:35:35.125Z,64.61
2023-02-17T08:38:03.051Z,60.64
2023-02-17T08:40:30.912Z,55.24
2023-02-17T08:42:58.637Z,54.86
2023-02-17T08:45:26.907Z,56.83
2023-02-17T08:47:54.767Z,59.30
2023-02-17T08:50:24.016Z,61.30
2023-02-17T08:52:52.251Z,67.95
2023-02-17T08:55:22.934Z,71.12
2023-02-17T08:57:51.771Z,65.86
2023-02-17T09:00:20.526Z,61.01
2023-02-17T09:02:48.785Z,56.60
2023-02-17T09:05:16.878Z,54.47
2023-02-17T09:07:46.364Z,57.20
2023-02-17T09:10:14.932Z,61.47
2023-02-17T09:12:42.772Z,67.79
2023-02-17T09:15:10.728Z,66.69
2023-02-17T09:17:40.867Z,62.93
2023-02-17T09:20:23.847Z,59.32
2023-02-17T09:22:52.648Z,55.27
2023-02-17T09:25:20.504Z,58.64
2023-02-17T09:27:48.378Z,62.90
2023-02-17T09:30:16.651Z,66.08
2023-02-17T09:32:44.659Z,63.12
2023-02-17T09:35:17.636Z,59.11
2023-02-17T09:37:45.790Z,56.10
2023-02-17T09:40:40.187Z,58.50
2023-02-17T09:43:15.891Z,64.45
2023-02-17T09:45:51.243Z,66.68
2023-02-17T09:48:25.731Z,64.12
2023-02-17T09:51:14.228Z,60.55
2023-02-17T09:53:53.910Z,55.25
2023-02-17T09:56:35.196Z,55.15
2023-02-17T09:59:15.513Z,57.31
2023-02-17T10:01:46.728Z,60.28
2023-02-17T10:04:26.886Z,68.44
2023-02-17T10:07:14.934Z,68.89
2023-02-17T10:09:55.680Z,61.15
2023-02-17T10:12:38.853Z,53.99
2023-02-17T10:15:19.526Z,53.89
2023-02-17T10:18:35.984Z,57.59
2023-02-17T10:21:24.033Z,60.94
2023-02-17T10:23:52.751Z,73.38
2023-02-17T10:26:53.599Z,66.08
2023-02-17T10:29:42.261Z,59.59
2023-02-17T10:32:27.251Z,51.31
2023-02-17T10:35:37.893Z,53.78
2023-02-17T10:38:37.889Z,56.18
2023-02-17T10:41:10.012Z,58.20
2023-02-17T10:43:37.710Z,60.65
2023-02-17T10:46:09.441Z,69.27
2023-02-17T10:48:47.393Z,69.52
2023-02-17T10:51:22.550Z,61.20
2023-02-17T10:54:23.015Z,54.97
2023-02-17T10:56:56.610Z,53.76
2023-02-17T10:59:33.755Z,56.31
2023-02-17T11:02:33.700Z,57.24
2023-02-17T11:05:02.392Z,63.60
2023-02-17T11:07:42.262Z,72.29
2023-02-17T11:10:29.037Z,66.01
2023-02-17T11:12:58.856Z,60.86
2023-02-17T11:15:34.832Z,54.04
2023-02-17T11:18:18.406Z,54.00
2023-02-17T11:20:47.814Z,57.13
2023-02-17T11:23:15.674Z,62.58
2023-02-17T11:25:56.925Z,71.20
2023-02-17T11:28:26.604Z,64.10
2023-02-17T11:31:01.004Z,56.82
2023-02-17T11:33:36.470Z,57.44
2023-02-17T11:36:10.688Z,63.94
2023-02-17T11:38:38.227Z,67.33
2023-02-17T11:41:09.072Z,62.50
2023-02-17T11:43:39.275Z,54.95
2023-02-17T11:46:28.546Z,53.87
2023-02-17T11:49:09.706Z,57.08
2023-02-17T11:52:00.413Z,59.24
2023-02-17T11:54:49.510Z,68.76
2023-02-17T11:57:45.307Z,68.50
2023-02-17T12:00:26.816Z,60.55
2023-02-17T12:03:27.152Z,53.83
2023-02-17T12:06:11.490Z,52.86
2023-02-17T12:08:55.021Z,55.90
2023-02-17T12:11:33.510Z,62.05
2023-02-17T12:14:22.542Z,70.58
2023-02-17T12:17:13.874Z,63.99
2023-02-17T12:20:11.110Z,53.54
2023-02-17T12:23:10.194Z,52.13
2023-02-17T12:26:03.390Z,55.74
2023-02-17T12:29:01.876Z,57.64
2023-02-17T12:32:05.390Z,64.76
2023-02-17T12:34:44.816Z,71.59
2023-02-17T12:37:26.314Z,62.02
2023-02-17T12:40:06.247Z,54.57
2023-02-17T12:42:43.962Z,54.46
2023-02-17T12:45:22.093Z,61.26
2023-02-17T12:48:14.872Z,66.86
2023-02-17T12:51:06.231Z,63.92
2023-02-17T12:53:48.634Z,57.68
2023-02-17T12:56:25.397Z,56.15
2023-02-17T12:58:58.912Z,59.77
2023-02-17T13:01:33.055Z,65.56
2023-02-17T13:04:02.355Z,66.27
2023-02-17T13:06:41.751Z,61.13
2023-02-17T13:09:26.538Z,54.63
2023-02-17T13:11:54.612Z,56.22
2023-02-17T13:14:38.368Z,59.93
2023-02-17T13:17:06.834Z,65.35
2023-02-17T13:19:35.812Z,65.31
2023-02-17T13:22:05.692Z,59.36
2023-02-17T13:24:51.509Z,55.06
2023-02-17T13:27:35.072Z,56.11
2023-02-17T13:30:40.100Z,58.90
2023-02-17T13:33:30.431Z,66.02
2023-02-17T13:35:58.682Z,65.65
2023-02-17T13:38:33.003Z,60.96
2023-02-17T13:41:07.177Z,55.52
2023-02-17T13:43:42.343Z,53.97
2023-02-17T13:46:21.348Z,54.04
2023-02-17T13:49:05.513Z,58.25
2023-02-17T13:51:34.337Z,60.88
2023-02-17T13:54:09.320Z,71.86
2023-02-17T13:56:37.188Z,67.15
2023-02-17T13:59:18.448Z,59.04
2023-02-17T14:01:47.603Z,53.93
2023-02-17T14:04:30.480Z,58.13
2023-02-17T14:07:01.412Z,59.64
2023-02-17T14:09:33.556Z,69.49
2023-02-17T14:12:07.405Z,65.01
2023-02-17T14:14:39.449Z,55.21
2023-02-17T14:17:32.782Z,54.16
2023-02-17T14:20:00.998Z,56.05
2023-02-17T14:22:35.096Z,59.20
2023-02-17T14:25:12.292Z,60.16
2023-02-17T14:27:53.833Z,60.59
2023-02-17T14:30:38.902Z,71.62
2023-02-17T14:33:16.397Z,66.65
2023-02-17T14:35:54.495Z,62.56
2023-02-17T14:38:43.303Z,55.52
2023-02-17T14:41:11.456Z,58.15
2023-02-17T14:43:43.048Z,58.80
2023-02-17T14:46:11.032Z,61.09
2023-02-17T14:48:39.216Z,67.67
2023-02-17T14:51:16.432Z,68.71
2023-02-17T14:53:46.232Z,60.64
2023-02-17T14:56:26.230Z,54.82
2023-02-17T14:58:54.458Z,54.91
2023-02-17T15:01:24.708Z,58.87
2023-02-17T15:03:53.883Z,67.70
2023-02-17T15:06:36.114Z,66.02
2023-02-17T15:09:03.923Z,60.25
2023-02-17T15:11:37.047Z,56.32
2023-02-17T15:14:06.330Z,57.48
2023-02-17T15:16:34.178Z,62.29
2023-02-17T15:19:02.280Z,65.46
2023-02-17T15:21:34.361Z,61.90
2023-02-17T15:24:12.547Z,58.27
2023-02-17T15:26:40.472Z,59.86
2023-02-17T15:29:20.542Z,64.04
2023-02-17T15:31:51.260Z,63.19
2023-02-17T15:34:23.592Z,58.65
2023-02-17T15:36:52.433Z,58.39
2023-02-17T15:39:22.582Z,59.72
2023-02-17T15:41:54.714Z,64.70
2023-02-17T15:44:43.276Z,63.93
2023-02-17T15:47:19.143Z,59.92
2023-02-17T15:49:47.817Z,57.57
2023-02-17T15:52:18.371Z,60.57
2023-02-17T15:54:48.383Z,64.73
2023-02-17T15:57:26.816Z,62.78
2023-02-17T15:59:55.577Z,60.53
2023-02-17T16:02:25.852Z,58.72
2023-02-17T16:04:53.866Z,58.47
2023-02-17T16:07:21.730Z,61.74
2023-02-17T16:09:49.412Z,65.25
2023-02-17T16:12:27.413Z,63.30
2023-02-17T16:14:57.610Z,60.45
2023-02-17T16:17:26.498Z,59.55
2023-02-17T16:19:54.527Z,62.01
2023-02-17T16:22:22.340Z,64.22
2023-02-17T16:24:50.171Z,61.82
2023-02-17T16:27:18.089Z,60.29
2023-02-17T16:29:45.972Z,59.28
2023-02-17T16:32:14.122Z,60.79
2023-02-17T16:34:43.476Z,64.39
2023-02-17T16:37:17.825Z,65.33
2023-02-17T16:39:47.069Z,63.42
2023-02-17T16:42:15.716Z,61.83
2023-02-17T16:44:46.406Z,61.59
2023-02-17T16:47:22.640Z,60.91
2023-02-17T16:49:50.801Z,59.58
2023-02-17T16:52:27.711Z,57.66
2023-02-17T16:54:55.982Z,60.73
2023-02-17T16:57:27.405Z,61.99
2023-02-17T16:59:56.397Z,67.26
2023-02-17T17:02:25.566Z,66.08
2023-02-17T17:04:53.650Z,62.66
2023-02-17T17:07:21.385Z,57.81
2023-02-17T17:10:14.335Z,56.73
2023-02-17T17:12:36.920Z,56.42
2023-02-17T17:15:05.214Z,65.40
2023-02-17T17:17:41.193Z,65.38
2023-02-17T17:20:17.185Z,60.56
2023-02-17T17:22:46.825Z,55.35
2023-02-17T17:25:14.968Z,59.17
2023-02-17T17:27:43.785Z,60.42
2023-02-17T17:30:20.400Z,66.63
2023-02-17T17:32:48.709Z,65.86
2023-02-17T17:35:17.228Z,63.02
2023-02-17T17:37:45.465Z,60.07
2023-02-17T17:40:22.966Z,56.12
2023-02-17T17:42:51.412Z,58.49
2023-02-17T17:45:19.853Z,62.27
2023-02-17T17:47:47.587Z,65.17
2023-02-17T17:50:23.889Z,62.15
2023-02-17T17:52:52.462Z,60.98
2023-02-17T17:55:20.672Z,58.45
2023-02-17T17:57:48.844Z,61.39
2023-02-17T18:00:18.787Z,65.07
2023-02-17T18:02:46.556Z,63.73
2023-02-17T18:05:14.487Z,59.27
2023-02-17T18:07:46.847Z,57.98
2023-02-17T18:10:17.216Z,60.71
2023-02-17T18:12:47.301Z,64.72
2023-02-17T18:15:17.382Z,64.28
2023-02-17T18:17:47.833Z,62.12
2023-02-17T18:20:16.444Z,59.18
2023-02-17T18:22:46.816Z,58.92
2023-02-17T18:25:14.592Z,61.18
2023-02-17T18:27:46.136Z,64.91
2023-02-17T18:30:19.785Z,62.66
2023-02-17T18:32:47.973Z,60.27
2023-02-17T18:35:19.505Z,57.74
2023-02-17T18:37:48.022Z,62.45
2023-02-17T18:40:20.227Z,64.37
2023-02-17T18:42:50.291Z,63.52
2023-02-17T18:45:22.507Z,61.66
2023-02-17T18:47:50.618Z,59.64
2023-02-17T18:50:19.233Z,59.78
2023-02-17T18:52:46.987Z,63.15
2023-02-17T18:55:15.198Z,63.00
2023-02-17T18:57:44.896Z,60.36
2023-02-17T19:00:16.849Z,58.28
2023-02-17T19:02:44.689Z,61.15
2023-02-17T19:05:13.634Z,63.98
2023-02-17T19:07:41.381Z,63.01
2023-02-17T19:10:10.647Z,59.71
2023-02-17T19:12:38.936Z,57.45
2023-02-17T19:15:07.681Z,62.76
2023-02-17T19:17:35.914Z,64.24
2023-02-17T19:20:04.278Z,61.22
2023-02-17T19:22:36.711Z,57.40
2023-02-17T19:25:05.230Z,59.85
2023-02-17T19:27:32.962Z,63.26
2023-02-17T19:30:00.769Z,62.24
2023-02-17T19:32:28.736Z,59.89
2023-02-17T19:34:56.585Z,57.94
2023-02-17T19:37:24.347Z,61.25
2023-02-17T19:39:52.376Z,64.33
2023-02-17T19:42:20.484Z,62.01
2023-02-17T19:44:49.182Z,59.11
2023-02-17T19:47:16.993Z,58.85
2023-02-17T19:49:45.049Z,62.26
2023-02-17T19:52:12.812Z,64.56
2023-02-17T19:54:40.650Z,62.13
2023-02-17T19:57:08.627Z,60.08
2023-02-17T19:59:37.152Z,57.45
2023-02-17T20:02:05.682Z,58.65
2023-02-17T20:04:33.518Z,62.21
2023-02-17T20:07:01.251Z,64.98
2023-02-17T20:09:29.497Z,60.92
2023-02-17T20:11:58.292Z,58.63
2023-02-17T20:14:26.580Z,59.38
2023-02-17T20:16:55.726Z,61.38
2023-02-17T20:19:23.771Z,65.33
2023-02-17T20:21:52.162Z,62.92
2023-02-17T20:24:20.160Z,58.93
2023-02-17T20:26:51.334Z,59.75
2023-02-17T20:29:21.757Z,63.89
2023-02-17T20:31:50.215Z,63.84
2023-02-17T20:34:40.718Z,60.34
2023-02-17T20:37:09.740Z,56.31
2023-02-17T20:39:39.151Z,58.44
2023-02-17T20:42:09.101Z,63.43
2023-02-17T20:44:36.990Z,61.88
2023-02-17T20:47:04.897Z,59.60
2023-02-17T20:49:32.723Z,58.09
2023-02-17T20:52:00.514Z,61.05
2023-02-17T20:54:28.386Z,62.40
2023-02-17T20:56:58.021Z,63.21
2023-02-17T20:59:26.470Z,58.04
2023-02-17T21:01:54.535Z,58.83
2023-02-17T21:04:24.265Z,60.59
2023-02-17T21:06:52.216Z,61.71
2023-02-17T21:09:20.419Z,63.47
2023-02-17T21:11:48.984Z,59.27
2023-02-17T21:14:16.868Z,56.94
2023-02-17T21:16:46.477Z,59.11
2023-02-17T21:19:14.880Z,60.89
2023-02-17T21:21:42.725Z,62.11
2023-02-17T21:24:13.701Z,62.05
2023-02-17T21:26:41.716Z,57.91
2023-02-17T21:29:10.397Z,54.65
2023-02-17T21:31:38.335Z,57.71
2023-02-17T21:34:08.707Z,59.88
2023-02-17T21:36:36.758Z,60.33
2023-02-17T21:39:05.671Z,62.85
2023-02-17T21:41:33.872Z,60.52
2023-02-17T21:44:20.825Z,58.04
2023-02-17T21:46:48.803Z,59.36
2023-02-17T21:49:17.532Z,60.53
2023-02-17T21:51:45.448Z,62.11
2023-02-17T21:54:13.421Z,63.20
2023-02-17T21:56:41.525Z,60.41
2023-02-17T21:59:09.444Z,54.56
2023-02-17T22:01:38.429Z,54.54
2023-02-17T22:04:07.195Z,56.97
2023-02-17T22:06:40.907Z,58.80
2023-02-17T22:09:12.385Z,59.78
2023-02-17T22:11:43.281Z,60.33
2023-02-17T22:14:20.508Z,61.59
2023-02-17T22:16:48.910Z,63.84
2023-02-17T22:19:21.646Z,61.78
2023-02-17T22:21:51.608Z,56.87
2023-02-17T22:24:21.601Z,57.51
2023-02-17T22:26:50.148Z,59.23
2023-02-17T22:29:18.892Z,60.54
2023-02-17T22:31:47.899Z,61.78
2023-02-17T22:34:17.357Z,62.66
2023-02-17T22:36:45.274Z,61.73
2023-02-17T22:39:13.057Z,56.03
2023-02-17T22:41:40.912Z,54.71
2023-02-17T22:44:08.714Z,57.34
2023-02-17T22:46:36.667Z,59.26
2023-02-17T22:49:04.723Z,60.95
2023-02-17T22:51:38.958Z,61.62
2023-02-17T22:54:08.280Z,62.21
2023-02-17T22:56:37.294Z,60.24
2023-02-17T22:59:06.227Z,55.46
2023-02-17T23:01:37.163Z,54.75
2023-02-17T23:04:06.454Z,55.93
2023-02-17T23:06:37.947Z,56.85
2023-02-17T23:09:18.999Z,57.72
2023-02-17T23:11:50.296Z,57.60
2023-02-17T23:14:26.009Z,58.11
2023-02-17T23:17:02.588Z,57.85
2023-02-17T23:19:35.766Z,57.16
2023-02-17T23:22:14.350Z,56.71
2023-02-17T23:24:48.859Z,56.57
2023-02-17T23:27:17.697Z,56.16
2023-02-17T23:29:45.567Z,55.84
2023-02-17T23:32:13.771Z,55.20
2023-02-17T23:34:41.772Z,55.39
2023-02-17T23:37:09.561Z,55.13
2023-02-17T23:39:38.280Z,55.11
2023-02-17T23:42:06.633Z,55.03
2023-02-17T23:44:34.389Z,54.99
2023-02-17T23:47:03.080Z,55.18
2023-02-17T23:49:30.889Z,55.04
2023-02-17T23:51:58.720Z,53.57
2023-02-17T23:54:27.193Z,54.34
2023-02-17T23:56:55.192Z,54.58
2023-02-17T23:59:22.922Z,53.99
